createdAt,value
2023-02-05T00:00:19.779Z,100.00
2023-02-05T00:02:47.033Z,100.00
2023-02-05T00:05:13.501Z,100.00
2023-02-05T00:07:40.276Z,100.00
2023-02-05T00:10:07.078Z,100.00
2023-02-05T00:12:33.601Z,100.00
2023-02-05T00:15:00.153Z,100.00
2023-02-05T00:17:26.692Z,100.00
2023-02-05T00:19:53.201Z,100.00
2023-02-05T00:22:19.659Z,100.00
2023-02-05T00:24:46.190Z,100.00
2023-02-05T00:27:12.702Z,100.00
2023-02-05T00:29:39.163Z,100.00
2023-02-05T00:32:05.859Z,100.00
2023-02-05T00:34:32.402Z,100.00
2023-02-05T00:36:58.959Z,100.00
2023-02-05T00:39:25.425Z,100.00
2023-02-05T00:41:51.906Z,100.00
2023-02-05T00:44:18.428Z,100.00
2023-02-05T00:46:44.927Z,100.00
2023-02-05T00:49:11.494Z,100.00
2023-02-05T00:51:37.997Z,100.00
2023-02-05T00:54:04.625Z,100.00
2023-02-05T00:56:31.144Z,100.00
2023-02-05T00:58:57.796Z,100.00
2023-02-05T01:01:25.104Z,100.00
2023-02-05T01:03:51.652Z,100.00
2023-02-05T01:06:18.249Z,100.00
2023-02-05T01:08:44.856Z,100.00
2023-02-05T01:11:11.482Z,100.00
2023-02-05T01:13:39.355Z,100.00
2023-02-05T01:16:06.179Z,100.00
2023-02-05T01:18:32.760Z,100.00
2023-02-05T01:20:59.416Z,100.00
2023-02-05T01:23:26.052Z,100.00
2023-02-05T01:25:52.671Z,100.00
2023-02-05T01:28:19.299Z,100.00
2023-02-05T01:30:50.704Z,100.00
2023-02-05T01:33:18.363Z,100.00
2023-02-05T01:35:45.315Z,100.00
2023-02-05T01:38:13.058Z,100.00
2023-02-05T01:40:40.431Z,100.00
2023-02-05T01:43:12.881Z,100.00
2023-02-05T01:46:00.899Z,100.00
2023-02-05T01:48:36.799Z,100.00
2023-02-05T01:51:08.336Z,100.00
2023-02-05T01:53:37.226Z,100.00
2023-02-05T01:56:08.825Z,100.00
2023-02-05T01:58:40.421Z,100.00
2023-02-05T02:01:07.123Z,100.00
2023-02-05T02:03:33.654Z,100.00
2023-02-05T02:06:00.256Z,100.00
2023-02-05T02:08:27.066Z,100.00
2023-02-05T02:10:57.068Z,100.00
2023-02-05T02:13:27.186Z,100.00
2023-02-05T02:15:54.380Z,100.00
2023-02-05T02:18:27.809Z,100.00
2023-02-05T02:21:13.090Z,100.00
2023-02-05T02:24:11.052Z,100.00
2023-02-05T02:27:05.546Z,100.00
2023-02-05T02:29:39.817Z,100.00
2023-02-05T02:32:12.450Z,100.00
2023-02-05T02:34:49.191Z,100.00
2023-02-05T02:37:25.031Z,100.00
2023-02-05T02:39:56.413Z,100.00
2023-02-05T02:42:34.455Z,100.00
2023-02-05T02:45:04.661Z,100.00
2023-02-05T02:47:35.622Z,100.00
2023-02-05T02:50:13.205Z,100.00
2023-02-05T02:52:42.460Z,100.00
2023-02-05T02:55:12.617Z,100.00
2023-02-05T02:57:41.657Z,100.00
2023-02-05T03:00:22.571Z,100.00
2023-02-05T03:02:52.106Z,100.00
2023-02-05T03:05:22.017Z,100.00
2023-02-05T03:07:54.454Z,100.00
2023-02-05T03:10:32.278Z,100.00
2023-02-05T03:12:58.877Z,100.00
2023-02-05T03:15:25.684Z,100.00
2023-02-05T03:17:54.782Z,100.00
2023-02-05T03:20:26.908Z,100.00
2023-02-05T03:22:54.838Z,100.00
2023-02-05T03:25:23.139Z,100.00
2023-02-05T03:27:53.125Z,100.00
2023-02-05T03:30:21.247Z,100.00
2023-02-05T03:32:56.858Z,100.00
2023-02-05T03:35:36.876Z,100.00
2023-02-05T03:38:31.557Z,100.00
2023-02-05T03:41:08.131Z,100.00
2023-02-05T03:43:58.349Z,100.00
2023-02-05T03:46:43.773Z,100.00
2023-02-05T03:49:28.164Z,100.00
2023-02-05T03:52:04.892Z,100.00
2023-02-05T03:54:46.628Z,100.00
2023-02-05T03:57:39.278Z,100.00
2023-02-05T04:00:06.699Z,100.00
2023-02-05T04:02:34.300Z,100.00
2023-02-05T04:05:00.861Z,100.00
2023-02-05T04:07:27.439Z,100.00
2023-02-05T04:09:53.979Z,100.00
2023-02-05T04:12:20.518Z,100.00
2023-02-05T04:14:47.092Z,100.00
2023-02-05T04:17:13.737Z,100.00
2023-02-05T04:19:41.551Z,100.00
2023-02-05T04:22:08.078Z,100.00
2023-02-05T04:24:34.552Z,100.00
2023-02-05T04:27:01.017Z,100.00
2023-02-05T04:29:27.654Z,100.00
2023-02-05T04:31:54.183Z,100.00
2023-02-05T04:34:20.739Z,100.00
2023-02-05T04:36:47.257Z,100.00
2023-02-05T04:39:13.772Z,100.00
2023-02-05T04:41:40.240Z,100.00
2023-02-05T04:44:06.951Z,100.00
2023-02-05T04:46:33.587Z,100.00
2023-02-05T04:49:01.228Z,100.00
2023-02-05T04:51:27.776Z,100.00
2023-02-05T04:53:54.323Z,100.00
2023-02-05T04:56:20.784Z,100.00
2023-02-05T04:58:47.262Z,100.00
2023-02-05T05:01:19.629Z,100.00
2023-02-05T05:03:46.748Z,100.00
2023-02-05T05:06:14.478Z,100.00
2023-02-05T05:08:41.317Z,100.00
2023-02-05T05:11:12.845Z,100.00
2023-02-05T05:13:40.195Z,100.00
2023-02-05T05:16:08.131Z,100.00
2023-02-05T05:18:35.201Z,100.00
2023-02-05T05:21:03.005Z,100.00
2023-02-05T05:23:30.190Z,100.00
2023-02-05T05:25:56.684Z,100.00
2023-02-05T05:28:23.292Z,100.00
2023-02-05T05:30:49.920Z,100.00
2023-02-05T05:33:16.557Z,100.00
2023-02-05T05:35:43.212Z,100.00
2023-02-05T05:38:09.736Z,100.00
2023-02-05T05:40:55.024Z,100.00
2023-02-05T05:43:40.110Z,100.00
2023-02-05T05:46:07.686Z,100.00
2023-02-05T05:48:34.894Z,100.00
2023-02-05T05:51:01.526Z,100.00
2023-02-05T05:53:28.388Z,100.00
2023-02-05T05:55:54.897Z,100.00
2023-02-05T05:58:21.418Z,100.00
2023-02-05T06:00:47.906Z,100.00
2023-02-05T06:03:14.435Z,100.00
2023-02-05T06:05:40.928Z,100.00
2023-02-05T06:08:07.627Z,100.00
2023-02-05T06:10:34.262Z,100.00
2023-02-05T06:13:01.050Z,100.00
2023-02-05T06:15:27.546Z,100.00
2023-02-05T06:17:54.156Z,100.00
2023-02-05T06:20:20.813Z,100.00
2023-02-05T06:22:47.336Z,100.00
2023-02-05T06:25:13.854Z,100.00
2023-02-05T06:27:40.358Z,100.00
2023-02-05T06:30:07.297Z,100.00
2023-02-05T06:32:33.795Z,100.00
2023-02-05T06:35:00.319Z,100.00
2023-02-05T06:37:46.150Z,100.00
2023-02-05T06:40:15.828Z,100.00
2023-02-05T06:42:42.772Z,100.00
2023-02-05T06:45:10.375Z,100.00
2023-02-05T06:47:37.817Z,100.00
2023-02-05T06:50:06.131Z,100.00
2023-02-05T06:52:32.687Z,100.00
2023-02-05T06:54:59.186Z,100.00
2023-02-05T06:57:25.806Z,100.00
2023-02-05T06:59:52.281Z,100.00
2023-02-05T07:02:18.901Z,100.00
2023-02-05T07:04:45.885Z,100.00
2023-02-05T07:07:12.508Z,100.00
2023-02-05T07:09:38.982Z,100.00
2023-02-05T07:12:05.935Z,100.00
2023-02-05T07:14:32.429Z,100.00
2023-02-05T07:16:58.926Z,100.00
2023-02-05T07:19:25.489Z,100.00
2023-02-05T07:21:51.948Z,100.00
2023-02-05T07:24:18.427Z,100.00
2023-02-05T07:26:45.366Z,100.00
2023-02-05T07:29:11.856Z,100.00
2023-02-05T07:31:38.504Z,100.00
2023-02-05T07:34:05.085Z,100.00
2023-02-05T07:36:31.609Z,100.00
2023-02-05T07:38:58.160Z,100.00
2023-02-05T07:41:26.847Z,100.00
2023-02-05T07:43:54.571Z,95.72
2023-02-05T07:46:22.315Z,94.57
2023-02-05T07:48:49.120Z,92.66
2023-02-05T07:51:22.090Z,91.11
2023-02-05T07:53:48.886Z,84.39
2023-02-05T07:56:16.189Z,70.17
2023-02-05T07:58:42.787Z,61.54
2023-02-05T08:01:09.780Z,50.42
2023-02-05T08:03:36.442Z,48.89
2023-02-05T08:06:07.499Z,48.19
2023-02-05T08:08:34.712Z,45.54
2023-02-05T08:11:03.928Z,42.79
2023-02-05T08:13:30.731Z,45.13
2023-02-05T08:15:57.887Z,42.98
2023-02-05T08:18:24.495Z,43.81
2023-02-05T08:20:54.844Z,46.89
2023-02-05T08:23:22.228Z,43.16
2023-02-05T08:25:48.842Z,44.86
2023-02-05T08:28:15.455Z,47.97
2023-02-05T08:30:42.043Z,48.99
2023-02-05T08:33:08.599Z,47.63
2023-02-05T08:35:35.430Z,46.17
2023-02-05T08:38:02.245Z,49.56
2023-02-05T08:40:29.104Z,47.70
2023-02-05T08:42:57.806Z,48.35
2023-02-05T08:45:24.808Z,56.05
2023-02-05T08:47:51.403Z,64.02
2023-02-05T08:50:18.735Z,71.11
2023-02-05T08:52:45.492Z,74.96
2023-02-05T08:55:12.422Z,65.42
2023-02-05T08:57:39.412Z,66.96
2023-02-05T09:00:06.476Z,68.24
2023-02-05T09:02:32.961Z,67.72
2023-02-05T09:05:08.356Z,63.18
2023-02-05T09:07:36.195Z,61.73
2023-02-05T09:10:02.709Z,58.62
2023-02-05T09:12:29.245Z,61.86
2023-02-05T09:14:55.755Z,67.41
2023-02-05T09:17:22.242Z,74.79
2023-02-05T09:19:48.748Z,72.19
2023-02-05T09:22:15.256Z,72.88
2023-02-05T09:24:41.755Z,65.68
2023-02-05T09:27:08.302Z,62.43
2023-02-05T09:29:34.819Z,62.16
2023-02-05T09:32:01.301Z,57.84
2023-02-05T09:34:27.841Z,51.37
2023-02-05T09:36:54.383Z,53.61
2023-02-05T09:39:44.332Z,58.59
2023-02-05T09:42:36.051Z,57.34
2023-02-05T09:45:14.938Z,61.76
2023-02-05T09:48:03.235Z,63.23
2023-02-05T09:50:30.745Z,65.93
2023-02-05T09:53:02.757Z,68.02
2023-02-05T09:55:32.765Z,68.60
2023-02-05T09:58:03.098Z,72.08
2023-02-05T10:00:39.307Z,75.35
2023-02-05T10:03:12.015Z,78.56
2023-02-05T10:06:01.969Z,79.35
2023-02-05T10:08:41.210Z,81.32
2023-02-05T10:11:19.275Z,80.41
2023-02-05T10:13:53.296Z,83.46
2023-02-05T10:17:06.728Z,81.92
2023-02-05T10:19:59.228Z,85.46
2023-02-05T10:22:43.717Z,85.65
2023-02-05T10:25:47.542Z,84.25
2023-02-05T10:28:38.403Z,86.24
2023-02-05T10:31:39.402Z,85.25
2023-02-05T10:34:18.429Z,81.98
2023-02-05T10:36:52.074Z,80.90
2023-02-05T10:39:24.951Z,80.75
2023-02-05T10:42:10.191Z,79.48
2023-02-05T10:44:44.561Z,80.33
2023-02-05T10:47:24.084Z,81.29
2023-02-05T10:50:02.298Z,80.25
2023-02-05T10:52:28.981Z,82.53
2023-02-05T10:54:55.935Z,81.10
2023-02-05T10:57:23.956Z,81.57
2023-02-05T11:00:02.218Z,81.47
2023-02-05T11:02:37.939Z,81.25
2023-02-05T11:05:14.965Z,80.61
2023-02-05T11:07:45.536Z,80.84
2023-02-05T11:10:24.692Z,77.68
2023-02-05T11:12:55.071Z,74.55
2023-02-05T11:15:25.367Z,72.31
2023-02-05T11:17:54.932Z,69.06
2023-02-05T11:20:30.732Z,68.37
2023-02-05T11:23:21.239Z,66.32
2023-02-05T11:25:56.508Z,64.46
2023-02-05T11:28:28.364Z,64.01
2023-02-05T11:30:56.022Z,63.09
2023-02-05T11:33:22.871Z,66.18
2023-02-05T11:35:55.894Z,68.67
2023-02-05T11:38:44.427Z,69.88
2023-02-05T11:41:25.939Z,69.56
2023-02-05T11:43:54.007Z,67.65
2023-02-05T11:46:26.233Z,66.54
2023-02-05T11:49:00.214Z,64.90
2023-02-05T11:51:32.628Z,66.45
2023-02-05T11:54:02.504Z,66.10
2023-02-05T11:56:29.035Z,67.12
2023-02-05T11:59:02.945Z,65.00
2023-02-05T12:01:36.198Z,64.93
2023-02-05T12:04:04.459Z,63.13
2023-02-05T12:06:38.468Z,63.02
2023-02-05T12:09:05.664Z,65.02
2023-02-05T12:12:04.339Z,66.40
2023-02-05T12:14:56.133Z,66.06
2023-02-05T12:17:31.902Z,63.49
2023-02-05T12:20:12.217Z,63.13
2023-02-05T12:23:17.493Z,61.40
2023-02-05T12:26:02.587Z,61.61
2023-02-05T12:28:42.650Z,61.77
2023-02-05T12:31:41.214Z,60.60
2023-02-05T12:34:24.796Z,59.32
2023-02-05T12:37:12.051Z,58.57
2023-02-05T12:39:57.780Z,58.86
2023-02-05T12:42:43.069Z,62.86
2023-02-05T12:45:50.997Z,65.17
2023-02-05T12:48:34.764Z,63.88
2023-02-05T12:51:09.614Z,63.89
2023-02-05T12:53:48.087Z,63.44
2023-02-05T12:56:49.565Z,62.15
2023-02-05T12:59:24.801Z,61.95
2023-02-05T13:01:56.709Z,62.55
2023-02-05T13:04:35.227Z,62.70
2023-02-05T13:07:12.077Z,62.82
2023-02-05T13:09:51.458Z,63.04
2023-02-05T13:12:23.345Z,64.92
2023-02-05T13:15:04.802Z,65.09
2023-02-05T13:17:38.330Z,66.81
2023-02-05T13:20:15.277Z,66.24
2023-02-05T13:23:15.288Z,65.98
2023-02-05T13:26:08.094Z,65.98
2023-02-05T13:28:42.422Z,66.56
2023-02-05T13:31:21.570Z,65.93
2023-02-05T13:33:48.630Z,66.86
2023-02-05T13:36:24.003Z,66.81
2023-02-05T13:39:33.743Z,69.09
2023-02-05T13:42:33.312Z,69.65
2023-02-05T13:45:18.653Z,69.85
2023-02-05T13:48:00.487Z,69.26
2023-02-05T13:51:00.847Z,69.12
2023-02-05T13:53:30.451Z,70.08
2023-02-05T13:56:24.641Z,68.79
2023-02-05T13:59:04.730Z,71.43
2023-02-05T14:01:40.869Z,71.30
2023-02-05T14:04:08.916Z,69.60
2023-02-05T14:06:38.280Z,70.07
2023-02-05T14:09:10.040Z,70.05
2023-02-05T14:11:53.191Z,71.95
2023-02-05T14:14:35.316Z,72.26
2023-02-05T14:17:23.308Z,71.92
2023-02-05T14:19:57.075Z,72.24
2023-02-05T14:22:58.155Z,72.71
2023-02-05T14:25:38.186Z,71.55
2023-02-05T14:28:17.210Z,70.64
2023-02-05T14:30:57.499Z,71.24
2023-02-05T14:33:47.342Z,73.32
2023-02-05T14:36:17.227Z,74.32
2023-02-05T14:38:55.500Z,74.16
2023-02-05T14:41:41.969Z,74.29
2023-02-05T14:44:30.612Z,74.76
2023-02-05T14:47:01.932Z,75.10
2023-02-05T14:49:34.304Z,74.48
2023-02-05T14:52:03.712Z,73.72
2023-02-05T14:54:36.392Z,75.18
2023-02-05T14:57:18.278Z,76.18
2023-02-05T14:59:56.750Z,76.06
2023-02-05T15:03:00.884Z,75.09
2023-02-05T15:05:41.964Z,75.01
2023-02-05T15:08:16.406Z,75.65
2023-02-05T15:10:54.677Z,75.19
2023-02-05T15:13:22.401Z,74.62
2023-02-05T15:16:09.662Z,75.92
2023-02-05T15:18:41.476Z,75.19
2023-02-05T15:21:16.299Z,76.69
2023-02-05T15:23:46.646Z,76.88
2023-02-05T15:26:33.883Z,77.85
2023-02-05T15:29:11.102Z,79.09
2023-02-05T15:31:47.142Z,79.22
2023-02-05T15:34:22.913Z,79.17
2023-02-05T15:37:15.108Z,80.91
2023-02-05T15:40:03.443Z,81.60
2023-02-05T15:42:40.275Z,81.66
2023-02-05T15:45:45.080Z,82.82
2023-02-05T15:48:12.060Z,83.83
2023-02-05T15:50:54.901Z,85.92
2023-02-05T15:53:31.546Z,85.58
2023-02-05T15:55:58.342Z,85.71
2023-02-05T15:58:26.471Z,85.77
2023-02-05T16:00:53.714Z,86.56
2023-02-05T16:03:26.144Z,86.81
2023-02-05T16:05:53.226Z,86.39
2023-02-05T16:08:22.493Z,87.09
2023-02-05T16:10:57.728Z,87.39
2023-02-05T16:13:28.438Z,91.49
2023-02-05T16:16:19.116Z,93.54
2023-02-05T16:19:01.282Z,94.40
2023-02-05T16:21:38.338Z,94.49
2023-02-05T16:24:15.181Z,95.42
2023-02-05T16:26:48.827Z,95.66
2023-02-05T16:29:47.694Z,96.17
2023-02-05T16:32:30.406Z,96.57
2023-02-05T16:34:58.426Z,98.72
2023-02-05T16:37:30.661Z,100.00
2023-02-05T16:39:59.935Z,100.00
2023-02-05T16:42:33.329Z,100.00
2023-02-05T16:48:24.908Z,100.00
2023-02-05T16:50:52.769Z,100.00
2023-02-05T16:53:26.820Z,100.00
2023-02-05T16:56:01.932Z,100.00
2023-02-05T16:58:43.915Z,100.00
2023-02-05T17:01:10.805Z,100.00
2023-02-05T17:03:41.690Z,100.00
2023-02-05T17:06:14.427Z,100.00
2023-02-05T17:08:42.613Z,100.00
2023-02-05T17:11:32.236Z,100.00
2023-02-05T17:14:35.824Z,100.00
2023-02-05T17:17:19.752Z,100.00
2023-02-05T17:20:17.522Z,100.00
2023-02-05T17:23:07.438Z,100.00
2023-02-05T17:25:41.404Z,100.00
2023-02-05T17:28:15.118Z,100.00
2023-02-05T17:30:43.960Z,100.00
2023-02-05T17:33:18.164Z,100.00
2023-02-05T17:35:44.817Z,100.00
2023-02-05T17:38:11.539Z,100.00
2023-02-05T17:40:38.424Z,100.00
2023-02-05T17:43:05.119Z,100.00
2023-02-05T17:45:36.246Z,100.00
2023-02-05T17:48:03.188Z,100.00
2023-02-05T17:50:29.746Z,100.00
2023-02-05T17:52:56.270Z,100.00
2023-02-05T17:55:23.518Z,100.00
2023-02-05T17:57:50.099Z,100.00
2023-02-05T18:00:23.118Z,100.00
2023-02-05T18:02:50.162Z,100.00
2023-02-05T18:05:18.999Z,100.00
2023-02-05T18:07:49.936Z,100.00
2023-02-05T18:10:21.909Z,100.00
2023-02-05T18:12:51.096Z,100.00
2023-02-05T18:15:18.011Z,100.00
2023-02-05T18:17:44.573Z,100.00
2023-02-05T18:20:12.509Z,100.00
2023-02-05T18:22:39.536Z,100.00
2023-02-05T18:25:06.751Z,100.00
2023-02-05T18:27:34.056Z,100.00
2023-02-05T18:30:00.796Z,100.00
2023-02-05T18:32:27.982Z,100.00
2023-02-05T18:34:54.661Z,100.00
2023-02-05T18:37:21.405Z,100.00
2023-02-05T18:39:48.488Z,100.00
2023-02-05T18:42:15.098Z,100.00
2023-02-05T18:44:41.830Z,100.00
2023-02-05T18:47:08.536Z,100.00
2023-02-05T18:49:35.842Z,100.00
2023-02-05T18:52:02.712Z,100.00
2023-02-05T18:57:01.810Z,100.00
2023-02-05T18:59:28.312Z,100.00
2023-02-05T19:01:55.101Z,100.00
2023-02-05T19:04:22.007Z,100.00
2023-02-05T19:06:52.630Z,100.00
2023-02-05T19:09:21.890Z,100.00
2023-02-05T19:11:49.133Z,100.00
2023-02-05T19:14:18.490Z,100.00
2023-02-05T19:16:47.065Z,100.00
2023-02-05T19:19:20.163Z,100.00
2023-02-05T19:21:48.885Z,100.00
2023-02-05T19:24:17.361Z,100.00
2023-02-05T19:26:44.585Z,100.00
2023-02-05T19:29:16.950Z,100.00
2023-02-05T19:31:45.297Z,100.00
2023-02-05T19:34:12.320Z,100.00
2023-02-05T19:36:39.487Z,100.00
2023-02-05T19:39:08.628Z,100.00
2023-02-05T19:41:37.062Z,100.00
2023-02-05T19:44:07.411Z,100.00
2023-02-05T19:46:44.280Z,100.00
2023-02-05T19:49:18.953Z,100.00
2023-02-05T19:51:51.574Z,100.00
2023-02-05T19:54:21.352Z,100.00
2023-02-05T19:56:48.425Z,100.00
2023-02-05T19:59:16.974Z,100.00
2023-02-05T20:01:45.061Z,100.00
2023-02-05T20:04:17.111Z,100.00
2023-02-05T20:06:46.522Z,100.00
2023-02-05T20:09:14.989Z,100.00
2023-02-05T20:11:44.274Z,100.00
2023-02-05T20:14:11.330Z,100.00
2023-02-05T20:16:40.419Z,100.00
2023-02-05T20:19:09.646Z,100.00
2023-02-05T20:21:36.173Z,100.00
2023-02-05T20:24:04.836Z,100.00
2023-02-05T20:26:31.700Z,100.00
2023-02-05T20:29:16.839Z,100.00
2023-02-05T20:31:47.318Z,100.00
2023-02-05T20:34:20.644Z,100.00
2023-02-05T20:36:50.108Z,100.00
2023-02-05T20:39:18.752Z,100.00
2023-02-05T20:41:46.704Z,100.00
2023-02-05T20:44:13.459Z,100.00
2023-02-05T20:46:40.304Z,100.00
2023-02-05T20:49:09.028Z,100.00
2023-02-05T20:51:36.495Z,100.00
2023-02-05T20:54:03.849Z,100.00
2023-02-05T20:56:31.448Z,100.00
2023-02-05T20:59:00.399Z,100.00
2023-02-05T21:01:28.659Z,100.00
2023-02-05T21:04:01.198Z,100.00
2023-02-05T21:06:31.108Z,100.00
2023-02-05T21:08:58.004Z,100.00
2023-02-05T21:11:25.988Z,100.00
2023-02-05T21:13:53.002Z,100.00
2023-02-05T21:16:23.027Z,100.00
2023-02-05T21:18:51.475Z,100.00
2023-02-05T21:21:23.887Z,100.00
2023-02-05T21:23:55.714Z,100.00
2023-02-05T21:26:25.566Z,100.00
2023-02-05T21:28:55.121Z,100.00
2023-02-05T21:31:22.528Z,100.00
2023-02-05T21:33:49.216Z,100.00
2023-02-05T21:36:17.910Z,100.00
2023-02-05T21:38:44.746Z,100.00
2023-02-05T21:41:13.746Z,100.00
2023-02-05T21:43:40.903Z,100.00
2023-02-05T21:46:10.350Z,100.00
2023-02-05T21:48:37.136Z,100.00
2023-02-05T21:51:09.668Z,100.00
2023-02-05T21:53:36.708Z,100.00
2023-02-05T21:56:06.185Z,100.00
2023-02-05T21:58:37.075Z,100.00
2023-02-05T22:01:18.380Z,100.00
2023-02-05T22:03:50.849Z,100.00
2023-02-05T22:06:18.527Z,100.00
2023-02-05T22:08:48.155Z,100.00
2023-02-05T22:11:15.243Z,100.00
2023-02-05T22:13:44.021Z,100.00
2023-02-05T22:16:16.260Z,100.00
2023-02-05T22:18:43.306Z,100.00
2023-02-05T22:21:12.926Z,100.00
2023-02-05T22:26:12.548Z,100.00
2023-02-05T22:28:39.188Z,100.00
2023-02-05T22:31:08.065Z,100.00
2023-02-05T22:33:35.986Z,100.00
2023-02-05T22:36:03.375Z,100.00
2023-02-05T22:38:35.862Z,100.00
2023-02-05T22:41:07.680Z,100.00
2023-02-05T22:43:34.265Z,100.00
2023-02-05T22:46:12.776Z,100.00
2023-02-05T22:48:41.612Z,100.00
2023-02-05T22:51:10.681Z,100.00
2023-02-05T22:53:37.922Z,100.00
2023-02-05T22:56:07.649Z,100.00
2023-02-05T22:58:35.171Z,100.00
2023-02-05T23:01:29.326Z,100.00
2023-02-05T23:03:57.117Z,100.00
2023-02-05T23:06:27.435Z,100.00
2023-02-05T23:08:59.624Z,100.00
2023-02-05T23:11:27.842Z,100.00
2023-02-05T23:13:55.716Z,100.00
2023-02-05T23:16:27.403Z,100.00
2023-02-05T23:18:57.110Z,100.00
2023-02-05T23:21:25.684Z,100.00
2023-02-05T23:23:52.201Z,100.00
2023-02-05T23:26:27.246Z,100.00
2023-02-05T23:28:55.068Z,100.00
2023-02-05T23:31:24.561Z,100.00
2023-02-05T23:33:52.528Z,100.00
2023-02-05T23:36:19.121Z,100.00
2023-02-05T23:38:45.996Z,100.00
2023-02-05T23:41:13.129Z,100.00
2023-02-05T23:43:40.266Z,100.00
2023-02-05T23:46:07.783Z,100.00
2023-02-05T23:48:34.333Z,100.00
2023-02-05T23:51:00.911Z,100.00
2023-02-05T23:53:27.480Z,100.00
2023-02-05T23:55:55.008Z,100.00
2023-02-05T23:58:25.929Z,100.00
